Sturgeon Lake, Minnesota
Current Conditions -  °F | °C
As of 9:13 AM on Monday 24 Nov 2014 (Local Time) from KMZH Reporting Station
Overcast Overcast  
Wind Chill: 17°   Ceiling: 1200
Heat Index: 27°   Visibility: 10mi
Dew Point: 23°   Wind: 10mph
Humidity: 86%   Direction: 310°NW
Pressure: 29.32"   Gusts: 20mph
Location:  46.38°N, 92.82°W
Report Text: KMZH 241513Z AUTO 31009G17KT 282V342 10SM OVC012 M03/M05 A2932 RMK AO2
Loading
Personal Weather Stations






























Interactive Weather Map New forecast layout! Learn more

10-Day Weather Forecast

Advertisements
Track Severe Weather on mobile